Time;durP1;ratioP1;P1;durP2;ratioP2;P2;SDS_P1;SDS_P2;PMS_P1;PMS_P2;Temp;Humidity;BMP_temperature;BMP_pressure;BME280_temperature;BME280_humidity;BME280_pressure;Samples;Min_cycle;Max_cycle;Signal;HPM_P1;HPM_P2
2023/06/03 00:00:20;;;;;;;1.23;0.50;;;13.50;80.10;;;;;;5008736;28;20026;-73
2023/06/03 00:02:49;;;;;;;1.85;0.52;;;13.50;79.70;;;;;;5006068;28;20042;-73
2023/06/03 00:05:17;;;;;;;1.55;0.50;;;13.50;80.00;;;;;;4992179;28;20081;-73
2023/06/03 00:07:43;;;;;;;1.00;0.47;;;13.40;80.20;;;;;;5006457;28;20507;-73
2023/06/03 00:10:09;;;;;;;1.02;0.40;;;13.40;80.30;;;;;;4988604;28;20041;-74
2023/06/03 00:12:35;;;;;;;1.25;0.50;;;13.30;79.10;;;;;;4993155;28;20030;-73
2023/06/03 00:15:00;;;;;;;4.88;0.47;;;13.30;78.80;;;;;;5008796;28;20033;-73
2023/06/03 00:17:27;;;;;;;0.98;0.47;;;13.30;78.10;;;;;;4993092;28;20542;-73
2023/06/03 00:19:54;;;;;;;1.13;0.30;;;13.30;78.30;;;;;;5002781;28;20517;-74
2023/06/03 00:22:21;;;;;;;0.68;0.30;;;13.20;78.30;;;;;;5010384;28;20479;-74
2023/06/03 00:24:47;;;;;;;1.80;0.50;;;13.30;78.10;;;;;;5018061;28;20045;-73
2023/06/03 00:27:13;;;;;;;2.13;0.40;;;13.20;78.10;;;;;;5030160;28;20112;-73
2023/06/03 00:29:39;;;;;;;2.55;0.60;;;13.20;78.40;;;;;;5025540;28;20116;-73
2023/06/03 00:32:05;;;;;;;0.90;0.60;;;13.10;78.40;;;;;;5025039;28;20199;-73
2023/06/03 00:34:30;;;;;;;1.15;0.30;;;13.10;79.00;;;;;;5029644;28;20030;-73
2023/06/03 00:36:56;;;;;;;0.50;0.35;;;13.10;78.20;;;;;;5010339;28;20562;-73
2023/06/03 00:39:22;;;;;;;3.08;0.52;;;13.00;78.00;;;;;;5010571;28;20041;-73
2023/06/03 00:41:48;;;;;;;1.58;0.40;;;13.00;77.60;;;;;;5008565;28;20083;-73
2023/06/03 00:44:13;;;;;;;2.67;0.47;;;13.00;77.60;;;;;;5029442;28;20041;-73
2023/06/03 00:46:41;;;;;;;0.75;0.30;;;12.90;77.00;;;;;;5026281;28;20033;-73
2023/06/03 00:49:07;;;;;;;0.70;0.40;;;12.90;77.20;;;;;;5028612;28;20535;-73
2023/06/03 00:51:35;;;;;;;0.52;0.30;;;12.90;77.00;;;;;;5025068;28;20073;-73
2023/06/03 00:54:01;;;;;;;1.55;0.43;;;12.90;76.70;;;;;;5025928;28;20438;-73
2023/06/03 00:56:27;;;;;;;0.68;0.40;;;12.90;76.70;;;;;;5028523;28;20030;-74
2023/06/03 00:58:53;;;;;;;1.20;0.32;;;12.80;76.40;;;;;;5009600;28;20223;-74
2023/06/03 01:01:21;;;;;;;0.45;0.30;;;12.80;76.00;;;;;;5011712;28;20199;-74
2023/06/03 01:03:47;;;;;;;1.15;0.30;;;12.80;76.10;;;;;;5032092;28;20418;-73
2023/06/03 01:06:24;;;;;;;0.43;0.20;;;12.80;76.10;;;;;;5012291;28;20526;-73
2023/06/03 01:09:00;;;;;;;1.77;0.50;;;12.70;76.90;;;;;;5019016;28;20134;-74
2023/06/03 01:11:42;;;;;;;1.05;0.40;;;12.70;76.30;;;;;;5027489;28;20041;-74
2023/06/03 01:14:34;;;;;;;1.23;0.45;;;12.70;76.20;;;;;;5029069;28;20029;-73
2023/06/03 01:17:01;;;;;;;1.13;0.52;;;12.60;76.00;;;;;;5010878;28;20104;-73
2023/06/03 01:19:38;;;;;;;1.80;0.65;;;12.50;76.90;;;;;;5023382;28;20556;-73
2023/06/03 01:22:06;;;;;;;1.02;0.43;;;12.50;76.70;;;;;;5023486;28;20045;-73
2023/06/03 01:24:32;;;;;;;1.08;0.38;;;12.50;76.80;;;;;;5023285;28;20418;-73
2023/06/03 01:26:58;;;;;;;0.60;0.40;;;12.40;77.10;;;;;;5011532;28;20052;-73
2023/06/03 01:29:24;;;;;;;1.25;0.50;;;12.40;77.10;;;;;;5003623;28;20064;-73
2023/06/03 01:31:53;;;;;;;0.82;0.40;;;12.30;76.90;;;;;;5026725;28;20741;-73
2023/06/03 01:34:18;;;;;;;1.13;0.40;;;12.30;76.90;;;;;;5024342;28;20038;-74
2023/06/03 01:36:44;;;;;;;3.35;0.57;;;12.30;76.90;;;;;;5027433;28;20053;-73
2023/06/03 01:39:11;;;;;;;1.17;0.30;;;12.30;77.60;;;;;;5027508;28;20503;-73
2023/06/03 01:41:39;;;;;;;1.20;0.35;;;12.30;77.80;;;;;;5011645;28;20094;-73
2023/06/03 01:44:05;;;;;;;2.10;0.50;;;12.20;77.90;;;;;;5028152;28;20091;-73
2023/06/03 01:46:31;;;;;;;0.45;0.20;;;12.20;78.00;;;;;;5025931;28;20045;-73
2023/06/03 01:48:56;;;;;;;1.27;0.45;;;12.10;78.40;;;;;;5019499;28;20500;-73
2023/06/03 01:51:25;;;;;;;0.50;0.30;;;12.10;78.70;;;;;;4995781;28;20033;-73
2023/06/03 01:53:51;;;;;;;0.80;0.30;;;12.10;78.90;;;;;;5018025;28;20049;-73
2023/06/03 01:56:16;;;;;;;0.60;0.30;;;12.00;79.50;;;;;;5021068;28;20390;-73
2023/06/03 01:58:42;;;;;;;2.30;0.40;;;12.00;80.10;;;;;;5022184;28;20033;-74
2023/06/03 02:01:08;;;;;;;0.90;0.47;;;11.90;80.50;;;;;;4998434;28;20044;-73
2023/06/03 02:03:33;;;;;;;1.27;0.43;;;11.90;81.00;;;;;;5020223;28;20392;-73
2023/06/03 02:05:59;;;;;;;1.63;0.38;;;11.80;80.80;;;;;;5023635;28;20469;-73
2023/06/03 02:08:24;;;;;;;0.52;0.35;;;11.80;80.50;;;;;;5003952;28;20037;-73
2023/06/03 02:10:50;;;;;;;1.45;0.25;;;11.80;81.00;;;;;;5017902;28;20045;-73
2023/06/03 02:13:16;;;;;;;0.85;0.40;;;11.80;81.10;;;;;;5022275;28;20364;-73
2023/06/03 02:15:41;;;;;;;1.48;0.55;;;11.80;81.00;;;;;;5019978;28;20123;-73
2023/06/03 02:18:07;;;;;;;2.35;0.45;;;11.70;80.50;;;;;;5018785;28;20628;-73
2023/06/03 02:20:33;;;;;;;0.60;0.30;;;11.70;81.50;;;;;;5021044;28;20451;-73
2023/06/03 02:23:01;;;;;;;1.77;0.50;;;11.70;81.60;;;;;;5002075;28;20054;-74
2023/06/03 02:25:27;;;;;;;0.35;0.25;;;11.70;80.40;;;;;;5018473;28;20065;-74
2023/06/03 02:27:54;;;;;;;0.60;0.30;;;11.70;81.40;;;;;;5017250;28;20106;-73
2023/06/03 02:30:21;;;;;;;0.30;0.20;;;11.70;81.70;;;;;;5015461;28;20399;-73
2023/06/03 02:32:47;;;;;;;1.92;0.50;;;11.60;81.60;;;;;;5022532;28;20045;-73
2023/06/03 02:35:14;;;;;;;1.38;0.20;;;11.60;81.90;;;;;;5022297;28;20052;-73
2023/06/03 02:37:39;;;;;;;1.02;0.30;;;11.60;82.10;;;;;;5022431;28;20033;-73
2023/06/03 02:40:06;;;;;;;0.98;0.30;;;11.60;81.60;;;;;;5021447;28;21322;-73
2023/06/03 02:42:32;;;;;;;0.88;0.40;;;11.50;82.00;;;;;;5016928;28;20494;-74
2023/06/03 02:44:58;;;;;;;0.93;0.45;;;11.50;82.40;;;;;;5021637;28;20091;-73
2023/06/03 02:47:23;;;;;;;0.75;0.30;;;11.50;82.50;;;;;;5023131;28;20447;-73
2023/06/03 02:49:49;;;;;;;0.60;0.30;;;11.40;83.20;;;;;;5022190;28;20033;-73
2023/06/03 02:52:15;;;;;;;1.13;0.40;;;11.40;83.30;;;;;;5001554;28;20045;-73
2023/06/03 02:54:40;;;;;;;1.08;0.50;;;11.40;83.50;;;;;;5002228;28;20037;-73
2023/06/03 02:57:07;;;;;;;1.40;0.50;;;11.30;83.60;;;;;;5025944;28;20069;-73
2023/06/03 02:59:33;;;;;;;2.20;0.50;;;11.30;83.80;;;;;;5029554;28;20537;-73
2023/06/03 03:01:58;;;;;;;1.88;0.40;;;11.30;84.00;;;;;;5028460;28;20049;-73
2023/06/03 03:04:26;;;;;;;0.77;0.40;;;11.20;84.00;;;;;;5022862;28;20525;-73
2023/06/03 03:06:54;;;;;;;0.90;0.40;;;11.20;84.40;;;;;;5020771;28;20029;-73
2023/06/03 03:09:19;;;;;;;0.90;0.30;;;11.10;84.60;;;;;;5022034;28;20041;-74
2023/06/03 03:11:45;;;;;;;2.42;0.45;;;11.20;84.90;;;;;;5016973;28;20048;-73
2023/06/03 03:14:11;;;;;;;1.55;0.40;;;11.10;84.80;;;;;;5005015;28;20181;-73
2023/06/03 03:16:36;;;;;;;0.45;0.28;;;11.10;84.90;;;;;;5024991;28;20033;-73
2023/06/03 03:19:02;;;;;;;1.40;0.47;;;11.10;85.30;;;;;;5019431;28;20383;-74
2023/06/03 03:21:28;;;;;;;2.33;0.40;;;11.00;85.50;;;;;;5021521;28;20404;-73
2023/06/03 03:23:54;;;;;;;0.95;0.32;;;11.00;86.10;;;;;;4987128;28;1143605;-74
2023/06/03 03:26:21;;;;;;;1.33;0.45;;;11.00;86.30;;;;;;5040512;28;20052;-73
2023/06/03 03:28:47;;;;;;;0.85;0.38;;;10.90;86.40;;;;;;5021425;28;20037;-74
2023/06/03 03:31:14;;;;;;;0.55;0.38;;;10.90;86.90;;;;;;5044608;28;20079;-74
2023/06/03 03:33:40;;;;;;;1.00;0.40;;;10.90;87.10;;;;;;5042851;28;20037;-74
2023/06/03 03:36:25;;;;;;;2.17;0.40;;;10.90;87.50;;;;;;5026448;28;20037;-74
2023/06/03 03:39:03;;;;;;;3.65;0.50;;;10.80;87.60;;;;;;5020206;28;20546;-74
2023/06/03 03:41:29;;;;;;;0.35;0.20;;;10.80;88.10;;;;;;5041353;28;20127;-74
2023/06/03 03:43:55;;;;;;;1.15;0.47;;;10.90;88.10;;;;;;5009569;28;20498;-74
2023/06/03 03:46:21;;;;;;;1.08;0.40;;;10.80;88.50;;;;;;5044829;28;20434;-74
2023/06/03 03:48:47;;;;;;;3.17;0.43;;;10.80;88.50;;;;;;5045111;28;20037;-74
2023/06/03 03:51:13;;;;;;;1.50;0.68;;;10.80;88.30;;;;;;5023845;28;20083;-74
2023/06/03 03:53:44;;;;;;;1.23;0.35;;;10.80;88.00;;;;;;5007771;28;20044;-74
2023/06/03 03:56:12;;;;;;;0.60;0.30;;;10.70;88.60;;;;;;5040271;28;20441;-74
2023/06/03 03:58:39;;;;;;;1.27;0.38;;;10.80;88.90;;;;;;5020328;28;20037;-74
2023/06/03 04:01:12;;;;;;;0.47;0.25;;;10.80;89.00;;;;;;5028848;28;20334;-74
2023/06/03 04:03:41;;;;;;;0.90;0.40;;;10.80;89.40;;;;;;5025306;28;20167;-74
2023/06/03 04:06:11;;;;;;;1.50;0.50;;;10.80;89.20;;;;;;5024602;28;20044;-73
2023/06/03 04:08:40;;;;;;;4.88;0.52;;;10.80;88.60;;;;;;5007143;28;20053;-74
2023/06/03 04:11:32;;;;;;;0.85;0.40;;;10.80;89.20;;;;;;5025338;28;20078;-74
2023/06/03 04:13:58;;;;;;;1.05;0.28;;;10.90;89.00;;;;;;5012733;28;20080;-74
2023/06/03 04:16:42;;;;;;;0.65;0.40;;;10.90;89.40;;;;;;5019745;28;20103;-74
2023/06/03 04:19:56;;;;;;;4.00;0.50;;;10.90;89.30;;;;;;5039405;28;20036;-74
2023/06/03 04:22:20;;;;;;;;;;;11.00;88.60;;;;;;5021787;28;20041;-74
2023/06/03 04:24:46;;;;;;;1.92;0.40;;;10.90;88.80;;;;;;5023095;28;20038;-74
2023/06/03 04:27:12;;;;;;;0.80;0.40;;;11.00;89.20;;;;;;5037942;28;20809;-74
2023/06/03 04:29:39;;;;;;;2.35;0.50;;;11.00;88.70;;;;;;5024013;28;20040;-74
2023/06/03 04:32:04;;;;;;;0.70;0.40;;;11.00;89.00;;;;;;5046044;28;20035;-74
2023/06/03 04:34:30;;;;;;;0.70;0.40;;;11.10;89.20;;;;;;5005903;28;20429;-74
2023/06/03 04:36:56;;;;;;;1.13;0.32;;;11.10;89.00;;;;;;5024291;28;21883;-74
2023/06/03 04:39:21;;;;;;;1.27;0.52;;;11.20;88.70;;;;;;5041622;28;20068;-74
2023/06/03 04:41:49;;;;;;;1.10;0.50;;;11.20;89.20;;;;;;5041596;28;20539;-74
2023/06/03 04:44:15;;;;;;;2.85;0.43;;;11.20;89.40;;;;;;5008087;28;20033;-74
2023/06/03 04:46:45;;;;;;;0.70;0.30;;;11.30;89.20;;;;;;5024505;28;20040;-74
2023/06/03 04:49:11;;;;;;;1.58;0.70;;;11.30;88.50;;;;;;5007789;28;20068;-74
2023/06/03 04:51:40;;;;;;;1.33;0.32;;;11.30;89.00;;;;;;5024453;28;20110;-74
2023/06/03 04:54:06;;;;;;;0.85;0.38;;;11.40;89.20;;;;;;5023251;28;20072;-74
2023/06/03 04:56:31;;;;;;;2.50;0.60;;;11.40;88.90;;;;;;5041910;28;20067;-74
2023/06/03 04:59:00;;;;;;;1.10;0.43;;;11.40;88.60;;;;;;5024739;28;20526;-74
2023/06/03 05:01:27;;;;;;;1.00;0.40;;;11.40;89.20;;;;;;5023587;28;20068;-74
2023/06/03 05:03:53;;;;;;;0.80;0.28;;;11.50;89.10;;;;;;5021478;28;20562;-74
2023/06/03 05:06:19;;;;;;;1.17;0.50;;;11.40;88.40;;;;;;5021822;28;20068;-74
2023/06/03 05:08:48;;;;;;;1.15;0.45;;;11.50;88.90;;;;;;5021212;28;20072;-74
2023/06/03 05:11:15;;;;;;;2.20;0.45;;;11.50;89.30;;;;;;5008045;28;20082;-74
2023/06/03 05:13:41;;;;;;;1.13;0.32;;;11.50;88.60;;;;;;5018856;28;20033;-74
2023/06/03 05:16:07;;;;;;;0.73;0.43;;;11.50;88.90;;;;;;5021964;28;20036;-73
2023/06/03 05:18:32;;;;;;;0.80;0.40;;;11.50;88.90;;;;;;5022192;28;20060;-74
2023/06/03 05:20:58;;;;;;;1.20;0.50;;;11.60;88.80;;;;;;5023161;28;20514;-74
2023/06/03 05:23:23;;;;;;;2.05;0.70;;;11.60;89.00;;;;;;5038527;28;20037;-74
2023/06/03 05:25:49;;;;;;;0.90;0.30;;;11.60;89.40;;;;;;5008445;28;20051;-74
2023/06/03 05:28:15;;;;;;;1.30;0.50;;;11.60;89.10;;;;;;5040155;28;20048;-74
2023/06/03 05:30:41;;;;;;;1.52;0.50;;;11.60;89.10;;;;;;5007865;28;20043;-74
2023/06/03 05:33:06;;;;;;;0.70;0.40;;;11.70;88.60;;;;;;5044214;28;20048;-74
2023/06/03 05:35:32;;;;;;;3.45;0.60;;;11.70;88.90;;;;;;5024047;28;20033;-74
2023/06/03 05:37:57;;;;;;;2.65;0.60;;;11.70;89.20;;;;;;5026759;28;20470;-74
2023/06/03 05:40:23;;;;;;;2.00;0.60;;;11.80;89.60;;;;;;5026438;28;20041;-74
2023/06/03 05:42:49;;;;;;;5.45;0.82;;;11.80;89.10;;;;;;5012577;28;20106;-74
2023/06/03 05:45:15;;;;;;;2.03;0.47;;;11.80;88.70;;;;;;5009018;28;20037;-74
2023/06/03 05:47:41;;;;;;;1.17;0.50;;;11.90;88.60;;;;;;5011604;28;20068;-74
2023/06/03 05:50:07;;;;;;;0.95;0.40;;;11.90;88.40;;;;;;5020387;28;20116;-74
2023/06/03 05:52:32;;;;;;;1.17;0.45;;;12.00;87.80;;;;;;5021859;28;20116;-74
2023/06/03 05:54:58;;;;;;;1.35;0.57;;;12.00;87.80;;;;;;5016723;28;20040;-74
2023/06/03 05:57:24;;;;;;;1.08;0.50;;;12.10;87.30;;;;;;5037968;28;20044;-74
2023/06/03 05:59:51;;;;;;;0.88;0.40;;;12.20;87.50;;;;;;5019731;28;20039;-74
2023/06/03 06:02:19;;;;;;;1.48;0.38;;;12.30;87.70;;;;;;5022799;28;20037;-74
2023/06/03 06:04:44;;;;;;;1.17;0.57;;;12.40;87.70;;;;;;5020528;28;20111;-74
2023/06/03 06:07:10;;;;;;;1.30;0.57;;;12.50;87.90;;;;;;5039127;28;20479;-74
2023/06/03 06:09:35;;;;;;;1.52;0.32;;;12.60;87.50;;;;;;5040730;28;20037;-74
2023/06/03 06:12:01;;;;;;;1.08;0.40;;;12.70;86.80;;;;;;5039405;28;20470;-74
2023/06/03 06:14:26;;;;;;;1.58;0.30;;;12.70;86.80;;;;;;5015372;28;20041;-74
2023/06/03 06:16:52;;;;;;;1.92;0.50;;;12.80;86.50;;;;;;5021392;28;20048;-74
2023/06/03 06:19:18;;;;;;;1.00;0.40;;;12.90;85.90;;;;;;5020956;28;20591;-72
2023/06/03 06:21:45;;;;;;;2.65;0.50;;;13.10;85.40;;;;;;5025756;28;20040;-74
2023/06/03 06:24:11;;;;;;;1.33;0.50;;;13.20;85.00;;;;;;5037037;28;20068;-74
2023/06/03 06:26:38;;;;;;;0.85;0.50;;;13.30;84.80;;;;;;5000780;28;20037;-74
2023/06/03 06:29:03;;;;;;;1.63;0.65;;;13.40;85.20;;;;;;5036771;28;20459;-74
2023/06/03 06:31:30;;;;;;;1.73;0.50;;;13.70;84.10;;;;;;5018923;28;20532;-74
2023/06/03 06:33:55;;;;;;;1.38;0.50;;;14.10;82.70;;;;;;5021234;28;20044;-74
2023/06/03 06:36:39;;;;;;;1.55;0.43;;;14.80;79.90;;;;;;5039954;28;20063;-74
2023/06/03 06:39:19;;;;;;;0.88;0.35;;;15.40;74.90;;;;;;5018100;28;20043;-74
2023/06/03 06:41:45;;;;;;;1.27;0.47;;;15.80;73.70;;;;;;5035857;28;20041;-74
2023/06/03 06:44:11;;;;;;;0.98;0.55;;;16.00;72.30;;;;;;5024085;28;20090;-74
2023/06/03 06:46:37;;;;;;;0.90;0.38;;;16.00;72.40;;;;;;5033457;28;20482;-74
2023/06/03 06:49:03;;;;;;;1.10;0.50;;;16.20;71.90;;;;;;5020529;28;20076;-74
2023/06/03 06:51:29;;;;;;;0.77;0.40;;;16.50;68.80;;;;;;5005011;28;20077;-74
2023/06/03 06:53:59;;;;;;;1.02;0.40;;;16.40;68.30;;;;;;5034916;28;20052;-74
2023/06/03 06:56:25;;;;;;;2.28;0.70;;;16.20;68.60;;;;;;5018586;28;20037;-75
2023/06/03 06:58:51;;;;;;;1.38;0.40;;;15.90;69.40;;;;;;5020754;28;20037;-74
2023/06/03 07:01:17;;;;;;;1.35;0.60;;;15.70;70.70;;;;;;5016287;28;20037;-74
2023/06/03 07:03:42;;;;;;;1.45;0.52;;;15.50;71.50;;;;;;5016382;28;20048;-75
2023/06/03 07:06:08;;;;;;;1.20;0.57;;;15.40;72.30;;;;;;5007555;28;20059;-74
2023/06/03 07:08:33;;;;;;;0.90;0.30;;;15.30;72.40;;;;;;5032146;28;20041;-74
2023/06/03 07:11:02;;;;;;;1.13;0.40;;;15.10;72.30;;;;;;5037831;28;20123;-74
2023/06/03 07:13:28;;;;;;;1.38;0.55;;;15.00;72.10;;;;;;5018334;28;20128;-74
2023/06/03 07:15:55;;;;;;;1.15;0.22;;;14.80;72.60;;;;;;5001625;28;20213;-74
2023/06/03 07:18:21;;;;;;;1.15;0.50;;;14.70;72.70;;;;;;5006008;28;20036;-75
2023/06/03 07:20:48;;;;;;;1.23;0.52;;;14.50;73.90;;;;;;5025604;28;20498;-75
2023/06/03 07:23:21;;;;;;;1.10;0.50;;;14.40;73.60;;;;;;5022667;28;20124;-75
2023/06/03 07:25:48;;;;;;;3.25;0.57;;;14.40;74.20;;;;;;5043000;28;20514;-74
2023/06/03 07:28:18;;;;;;;1.15;0.40;;;14.50;74.20;;;;;;5021276;28;20051;-75
2023/06/03 07:30:47;;;;;;;2.30;0.50;;;14.50;73.90;;;;;;5037840;28;20600;-75
2023/06/03 07:33:27;;;;;;;1.77;0.50;;;14.50;73.70;;;;;;5041812;28;20048;-75
2023/06/03 07:35:55;;;;;;;1.65;0.57;;;14.60;71.90;;;;;;5005194;28;20037;-74
2023/06/03 07:38:50;;;;;;;1.42;0.55;;;14.60;72.40;;;;;;5004439;28;20047;-80
2023/06/03 07:41:31;;;;;;;0.95;0.30;;;14.60;71.80;;;;;;5039991;28;20128;-74
2023/06/03 07:43:58;;;;;;;1.02;0.50;;;14.70;72.60;;;;;;5040459;28;20094;-74
2023/06/03 07:46:41;;;;;;;0.85;0.30;;;14.70;72.60;;;;;;5005458;28;20044;-75
2023/06/03 07:49:09;;;;;;;1.33;0.32;;;14.70;71.40;;;;;;5003973;28;20052;-75
2023/06/03 07:51:38;;;;;;;2.72;0.30;;;14.80;71.00;;;;;;5022526;28;20055;-75
2023/06/03 07:54:04;;;;;;;0.73;0.25;;;14.90;71.20;;;;;;5040768;28;20041;-75
2023/06/03 07:56:29;;;;;;;1.27;0.70;;;15.00;70.40;;;;;;5008433;28;20032;-74
2023/06/03 07:58:55;;;;;;;0.25;0.20;;;15.00;70.30;;;;;;5023836;28;20060;-75
2023/06/03 08:01:24;;;;;;;1.63;0.40;;;15.20;69.80;;;;;;5021274;28;20048;-74
2023/06/03 08:03:52;;;;;;;0.63;0.30;;;15.20;68.20;;;;;;5007196;28;20052;-75
2023/06/03 08:06:17;;;;;;;2.13;0.30;;;15.30;67.50;;;;;;5023552;28;20046;-75
2023/06/03 08:08:43;;;;;;;0.30;0.28;;;15.40;66.80;;;;;;5000396;28;20052;-75
2023/06/03 08:11:09;;;;;;;1.35;0.30;;;15.50;65.70;;;;;;5003721;28;20037;-75
2023/06/03 08:13:34;;;;;;;0.98;0.40;;;15.50;66.00;;;;;;5023561;28;20082;-75
2023/06/03 08:16:00;;;;;;;2.33;0.60;;;15.60;65.50;;;;;;5038399;28;20060;-75
2023/06/03 08:18:54;;;;;;;1.45;0.30;;;15.60;64.40;;;;;;5004287;28;20495;-75
2023/06/03 08:21:28;;;;;;;0.90;0.30;;;15.60;61.00;;;;;;5037770;28;20232;-75
2023/06/03 08:23:54;;;;;;;0.85;0.40;;;15.60;62.90;;;;;;5021897;28;20140;-75
2023/06/03 08:26:21;;;;;;;0.25;0.17;;;15.70;62.20;;;;;;5040414;28;20438;-76
2023/06/03 08:28:47;;;;;;;1.25;0.20;;;15.80;61.80;;;;;;5023136;28;20037;-75
2023/06/03 08:31:13;;;;;;;0.68;0.20;;;15.80;61.30;;;;;;5025472;28;20529;-74
2023/06/03 08:33:38;;;;;;;0.50;0.30;;;15.90;61.30;;;;;;5001446;28;20095;-75
2023/06/03 08:36:04;;;;;;;1.85;0.70;;;16.00;60.80;;;;;;5018094;28;20869;-75
2023/06/03 08:38:30;;;;;;;0.25;0.20;;;16.00;59.80;;;;;;5014898;28;20041;-75
2023/06/03 08:40:56;;;;;;;0.22;0.20;;;16.10;59.00;;;;;;5021716;28;20628;-75
2023/06/03 08:43:32;;;;;;;1.75;0.25;;;16.10;58.40;;;;;;5002149;28;20047;-75
2023/06/03 08:46:01;;;;;;;4.47;0.30;;;16.10;58.10;;;;;;5019885;28;20041;-75
2023/06/03 08:49:03;;;;;;;0.43;0.20;;;16.20;58.30;;;;;;5038110;28;20048;-75
2023/06/03 08:51:38;;;;;;;0.80;0.30;;;16.30;56.20;;;;;;5022204;28;20180;-75
2023/06/03 08:54:17;;;;;;;3.25;0.30;;;16.40;57.90;;;;;;5020382;28;20291;-75
2023/06/03 08:56:57;;;;;;;1.02;0.25;;;16.50;57.20;;;;;;5025535;28;20037;-75
2023/06/03 08:59:24;;;;;;;3.22;0.43;;;16.60;56.90;;;;;;5027463;28;20044;-75
2023/06/03 09:01:54;;;;;;;0.95;0.35;;;16.60;57.30;;;;;;5022889;28;20607;-75
2023/06/03 09:04:21;;;;;;;1.17;0.40;;;16.60;56.80;;;;;;5021521;28;20045;-76
2023/06/03 09:06:48;;;;;;;0.95;0.40;;;16.70;56.80;;;;;;5017447;28;20102;-75
2023/06/03 09:09:15;;;;;;;1.23;0.20;;;16.70;56.10;;;;;;5037453;28;20076;-76
2023/06/03 09:11:43;;;;;;;0.68;0.30;;;16.60;56.20;;;;;;5015731;28;20048;-75
2023/06/03 09:14:10;;;;;;;2.10;0.40;;;16.60;56.30;;;;;;5016790;28;20505;-75
2023/06/03 09:16:36;;;;;;;1.00;0.30;;;16.60;56.40;;;;;;5020517;28;20295;-75
2023/06/03 09:19:03;;;;;;;1.40;0.30;;;16.50;56.10;;;;;;5021423;28;20044;-75
2023/06/03 09:21:28;;;;;;;0.95;0.30;;;16.50;56.00;;;;;;5034643;28;20052;-75
2023/06/03 09:23:54;;;;;;;0.45;0.25;;;16.30;55.70;;;;;;5040427;28;20053;-75
2023/06/03 09:26:21;;;;;;;0.73;0.30;;;16.40;56.10;;;;;;5020675;28;20093;-76
2023/06/03 09:28:47;;;;;;;0.90;0.40;;;16.30;56.00;;;;;;5018659;28;20469;-76
2023/06/03 09:31:13;;;;;;;0.60;0.30;;;16.30;55.60;;;;;;5020020;28;20045;-75
2023/06/03 09:33:40;;;;;;;1.40;0.57;;;16.30;55.40;;;;;;5007477;28;20164;-75
2023/06/03 09:36:11;;;;;;;1.10;0.40;;;16.30;55.60;;;;;;5001862;28;20167;-75
2023/06/03 09:38:47;;;;;;;2.72;0.30;;;16.30;54.80;;;;;;5008867;28;20423;-75
2023/06/03 09:41:20;;;;;;;0.85;0.28;;;16.30;54.50;;;;;;5039417;28;20072;-75
2023/06/03 09:43:56;;;;;;;0.40;0.10;;;16.30;54.80;;;;;;5006122;28;20041;-75
2023/06/03 09:46:22;;;;;;;1.73;0.30;;;16.20;53.30;;;;;;5036793;28;20590;-75
2023/06/03 09:48:47;;;;;;;0.55;0.22;;;16.30;54.20;;;;;;5020459;28;20048;-75
2023/06/03 09:51:13;;;;;;;0.63;0.28;;;16.20;54.10;;;;;;5021851;28;20037;-75
2023/06/03 09:53:39;;;;;;;0.65;0.43;;;16.30;54.40;;;;;;5016610;28;20044;-75
2023/06/03 09:56:22;;;;;;;1.08;0.30;;;16.40;54.40;;;;;;5023526;28;20040;-75
2023/06/03 09:58:50;;;;;;;1.33;0.30;;;16.40;53.30;;;;;;5022822;28;20556;-75
2023/06/03 10:01:18;;;;;;;2.40;0.50;;;16.40;53.90;;;;;;5021138;28;20538;-75
2023/06/03 10:03:58;;;;;;;0.93;0.40;;;16.50;53.60;;;;;;5019042;28;20045;-75
2023/06/03 10:06:24;;;;;;;1.58;0.30;;;16.60;52.90;;;;;;5023355;28;20044;-75
2023/06/03 10:08:50;;;;;;;0.75;0.28;;;16.50;53.60;;;;;;4999176;28;20174;-75
2023/06/03 10:11:15;;;;;;;1.52;0.50;;;16.50;53.70;;;;;;5025514;28;20091;-75
2023/06/03 10:13:41;;;;;;;0.55;0.25;;;16.60;53.40;;;;;;5006770;28;20049;-75
2023/06/03 10:16:10;;;;;;;2.25;0.57;;;16.60;53.30;;;;;;5042780;28;20212;-75
2023/06/03 10:18:40;;;;;;;1.17;0.30;;;16.60;53.40;;;;;;5020498;28;20039;-75
2023/06/03 10:21:08;;;;;;;1.85;0.40;;;16.70;53.30;;;;;;5018407;28;20037;-75
2023/06/03 10:23:37;;;;;;;1.33;0.38;;;16.60;52.80;;;;;;5007773;28;20567;-75
2023/06/03 10:26:04;;;;;;;1.40;0.30;;;16.70;52.30;;;;;;5024209;28;20124;-75
2023/06/03 10:28:30;;;;;;;2.00;0.40;;;16.70;52.40;;;;;;5050589;28;20040;-75
2023/06/03 10:30:57;;;;;;;0.88;0.40;;;16.80;52.70;;;;;;5043670;28;20045;-74
2023/06/03 10:33:23;;;;;;;0.77;0.20;;;16.90;52.80;;;;;;5020467;28;20072;-75
2023/06/03 10:35:50;;;;;;;0.82;0.30;;;16.90;52.00;;;;;;5034094;28;20036;-75
2023/06/03 10:38:16;;;;;;;1.02;0.38;;;16.90;51.50;;;;;;5001298;28;20337;-75
2023/06/03 10:40:43;;;;;;;1.10;0.30;;;16.90;51.60;;;;;;5017272;28;20041;-75
2023/06/03 10:43:10;;;;;;;0.75;0.40;;;16.90;50.80;;;;;;5021859;28;20041;-75
2023/06/03 10:45:36;;;;;;;1.25;0.30;;;16.90;51.50;;;;;;5016854;28;20306;-75
2023/06/03 10:48:12;;;;;;;0.50;0.22;;;17.00;51.60;;;;;;5015886;28;21329;-74
2023/06/03 10:50:47;;;;;;;0.93;0.30;;;17.00;51.20;;;;;;5017573;28;20076;-75
2023/06/03 10:53:12;;;;;;;1.63;0.25;;;17.00;51.20;;;;;;5006097;28;20045;-75
2023/06/03 10:56:08;;;;;;;2.80;0.30;;;17.00;51.40;;;;;;5023231;28;20033;-74
2023/06/03 10:58:34;;;;;;;1.05;0.28;;;17.10;50.50;;;;;;5022909;28;20470;-74
2023/06/03 11:01:04;;;;;;;1.05;0.20;;;17.10;51.10;;;;;;5026097;28;20131;-74
2023/06/03 11:03:37;;;;;;;0.63;0.28;;;17.10;50.80;;;;;;5009676;28;21422;-74
2023/06/03 11:06:26;;;;;;;2.38;0.60;;;17.20;50.50;;;;;;5016907;28;20052;-75
2023/06/03 11:09:08;;;;;;;0.52;0.30;;;17.20;49.50;;;;;;5039716;28;20553;-74
2023/06/03 11:11:42;;;;;;;1.08;0.32;;;17.20;50.00;;;;;;5042665;28;20044;-74
2023/06/03 11:14:09;;;;;;;0.50;0.22;;;17.20;49.80;;;;;;5020537;28;20041;-75
2023/06/03 11:16:55;;;;;;;1.58;0.38;;;17.20;50.30;;;;;;5025413;28;20037;-75
2023/06/03 11:19:37;;;;;;;0.55;0.40;;;17.30;49.60;;;;;;5036210;28;20056;-75
2023/06/03 11:22:05;;;;;;;0.55;0.30;;;17.30;50.30;;;;;;5021974;28;20068;-75
2023/06/03 11:24:42;;;;;;;1.80;0.30;;;17.30;50.90;;;;;;5035636;28;20060;-75
2023/06/03 11:27:14;;;;;;;0.85;0.30;;;17.30;50.50;;;;;;5022424;28;20198;-75
2023/06/03 11:29:46;;;;;;;2.38;0.40;;;17.30;50.60;;;;;;5021316;28;20644;-75
2023/06/03 11:32:15;;;;;;;0.90;0.30;;;17.40;50.60;;;;;;5002585;28;20085;-75
2023/06/03 11:34:42;;;;;;;0.85;0.47;;;17.40;51.00;;;;;;5016110;28;20037;-75
2023/06/03 11:37:08;;;;;;;0.82;0.30;;;17.40;51.10;;;;;;5017611;28;20123;-75
2023/06/03 11:40:06;;;;;;;0.98;0.40;;;17.40;50.60;;;;;;5002904;28;20127;-74
2023/06/03 11:42:47;;;;;;;0.75;0.30;;;17.50;49.60;;;;;;5020118;28;20041;-75
2023/06/03 11:45:18;;;;;;;3.33;0.40;;;17.50;48.70;;;;;;5029654;28;20045;-75
2023/06/03 11:48:28;;;;;;;0.70;0.28;;;17.60;50.00;;;;;;5020483;28;20111;-75
2023/06/03 11:50:57;;;;;;;0.90;0.40;;;17.60;48.40;;;;;;4990767;28;20494;-75
2023/06/03 11:53:36;;;;;;;1.15;0.35;;;17.60;49.90;;;;;;5017259;28;20060;-75
2023/06/03 11:56:03;;;;;;;1.42;0.38;;;17.70;49.60;;;;;;5012697;28;20162;-75
2023/06/03 11:58:29;;;;;;;1.05;0.20;;;17.70;49.80;;;;;;5002437;28;20120;-75
2023/06/03 12:01:17;;;;;;;0.95;0.35;;;17.70;50.00;;;;;;5000294;28;20035;-75
2023/06/03 12:04:02;;;;;;;0.63;0.20;;;17.80;49.50;;;;;;5015034;28;20060;-75
2023/06/03 12:06:35;;;;;;;0.33;0.13;;;17.80;49.50;;;;;;5003050;28;20858;-75
2023/06/03 12:09:01;;;;;;;1.52;0.35;;;17.80;50.20;;;;;;5018127;28;20513;-74
2023/06/03 12:11:34;;;;;;;0.70;0.38;;;17.80;50.00;;;;;;5033280;28;20037;-74
2023/06/03 12:14:00;;;;;;;1.35;0.40;;;17.90;49.50;;;;;;5017361;28;20052;-75
2023/06/03 12:16:33;;;;;;;1.48;0.30;;;17.90;49.80;;;;;;5017956;28;20083;-74
2023/06/03 12:19:06;;;;;;;2.20;0.30;;;18.00;49.00;;;;;;5019120;28;20483;-73
2023/06/03 12:21:33;;;;;;;1.63;0.30;;;18.00;48.40;;;;;;5026476;28;20478;-75
2023/06/03 12:23:59;;;;;;;0.88;0.30;;;18.00;48.90;;;;;;5040962;28;20061;-75
2023/06/03 12:26:27;;;;;;;2.25;0.43;;;18.00;49.10;;;;;;5003201;28;20292;-76
2023/06/03 12:29:08;;;;;;;1.85;0.50;;;18.00;49.40;;;;;;5020554;28;20083;-74
2023/06/03 12:31:34;;;;;;;0.70;0.25;;;17.90;49.00;;;;;;5023260;28;20457;-74
2023/06/03 12:34:00;;;;;;;2.38;0.40;;;17.90;49.70;;;;;;5022252;28;20495;-74
2023/06/03 12:36:47;;;;;;;0.90;0.32;;;18.00;49.70;;;;;;5021299;28;20045;-75
2023/06/03 12:39:13;;;;;;;2.35;0.50;;;18.10;49.40;;;;;;5024315;28;20072;-73
2023/06/03 12:41:50;;;;;;;1.25;0.30;;;18.10;49.50;;;;;;5039951;28;20048;-73
2023/06/03 12:44:16;;;;;;;1.25;0.20;;;18.10;48.30;;;;;;5039604;28;20041;-74
2023/06/03 12:46:41;;;;;;;1.23;0.38;;;18.10;49.00;;;;;;5020833;28;20036;-72
2023/06/03 12:49:15;;;;;;;3.15;0.32;;;18.10;48.90;;;;;;5036677;28;20501;-75
2023/06/03 12:51:42;;;;;;;0.70;0.35;;;18.10;48.90;;;;;;5008323;28;20417;-74
2023/06/03 12:54:07;;;;;;;1.30;0.50;;;18.10;48.80;;;;;;5048062;28;20542;-74
2023/06/03 12:56:34;;;;;;;1.60;0.40;;;18.10;48.50;;;;;;5049338;28;20116;-75